sensor_id;sensor_type;location;lat;lon;timestamp;temperature;humidity
20700;DHT22;10511;51.232;9.420;2023-04-25T00:01:31;5.50;99.90
20700;DHT22;10511;51.232;9.420;2023-04-25T00:04:00;5.50;99.90
20700;DHT22;10511;51.232;9.420;2023-04-25T00:06:27;5.70;99.90
20700;DHT22;10511;51.232;9.420;2023-04-25T00:08:55;5.80;99.90
20700;DHT22;10511;51.232;9.420;2023-04-25T00:11:22;5.90;99.90
20700;DHT22;10511;51.232;9.420;2023-04-25T00:13:49;6.00;99.90
20700;DHT22;10511;51.232;9.420;2023-04-25T00:16:17;6.10;99.90
20700;DHT22;10511;51.232;9.420;2023-04-25T00:18:44;6.10;99.90
20700;DHT22;10511;51.232;9.420;2023-04-25T00:21:18;6.10;99.90
20700;DHT22;10511;51.232;9.420;2023-04-25T00:23:45;6.00;99.90
20700;DHT22;10511;51.232;9.420;2023-04-25T00:26:12;6.10;99.90
20700;DHT22;10511;51.232;9.420;2023-04-25T00:28:39;6.10;99.90
20700;DHT22;10511;51.232;9.420;2023-04-25T00:31:06;6.20;99.90
20700;DHT22;10511;51.232;9.420;2023-04-25T00:33:33;6.10;99.90
20700;DHT22;10511;51.232;9.420;2023-04-25T00:36:00;6.00;99.90
20700;DHT22;10511;51.232;9.420;2023-04-25T00:38:28;5.90;99.90
20700;DHT22;10511;51.232;9.420;2023-04-25T00:40:55;5.60;99.90
20700;DHT22;10511;51.232;9.420;2023-04-25T00:43:23;5.50;99.90
20700;DHT22;10511;51.232;9.420;2023-04-25T00:45:52;5.50;99.90
20700;DHT22;10511;51.232;9.420;2023-04-25T00:48:21;5.30;99.90
20700;DHT22;10511;51.232;9.420;2023-04-25T00:50:51;5.30;99.90
20700;DHT22;10511;51.232;9.420;2023-04-25T00:53:19;5.30;99.90
20700;DHT22;10511;51.232;9.420;2023-04-25T00:55:47;5.20;99.90
20700;DHT22;10511;51.232;9.420;2023-04-25T00:58:16;5.10;99.90
20700;DHT22;10511;51.232;9.420;2023-04-25T01:00:44;5.00;99.90
20700;DHT22;10511;51.232;9.420;2023-04-25T01:03:12;4.90;99.90
20700;DHT22;10511;51.232;9.420;2023-04-25T01:05:40;4.80;99.90
20700;DHT22;10511;51.232;9.420;2023-04-25T01:08:07;4.70;99.90
20700;DHT22;10511;51.232;9.420;2023-04-25T01:10:35;4.70;99.90
20700;DHT22;10511;51.232;9.420;2023-04-25T01:13:03;4.70;99.90
20700;DHT22;10511;51.232;9.420;2023-04-25T01:15:30;4.80;99.90
20700;DHT22;10511;51.232;9.420;2023-04-25T01:17:57;4.80;99.90
20700;DHT22;10511;51.232;9.420;2023-04-25T01:20:26;4.60;99.90
20700;DHT22;10511;51.232;9.420;2023-04-25T01:22:55;4.50;99.90
20700;DHT22;10511;51.232;9.420;2023-04-25T01:25:22;4.60;99.90
20700;DHT22;10511;51.232;9.420;2023-04-25T01:27:49;4.70;99.90
20700;DHT22;10511;51.232;9.420;2023-04-25T01:30:17;4.80;99.90
20700;DHT22;10511;51.232;9.420;2023-04-25T01:32:44;4.90;99.90
20700;DHT22;10511;51.232;9.420;2023-04-25T01:35:11;5.00;99.90
20700;DHT22;10511;51.232;9.420;2023-04-25T01:37:38;5.10;99.90
20700;DHT22;10511;51.232;9.420;2023-04-25T01:40:09;5.00;99.90
20700;DHT22;10511;51.232;9.420;2023-04-25T01:42:40;5.00;99.90
20700;DHT22;10511;51.232;9.420;2023-04-25T01:45:10;5.00;99.90
20700;DHT22;10511;51.232;9.420;2023-04-25T01:47:37;4.90;99.90
20700;DHT22;10511;51.232;9.420;2023-04-25T01:50:06;5.10;99.90
20700;DHT22;10511;51.232;9.420;2023-04-25T01:52:33;5.10;99.90
20700;DHT22;10511;51.232;9.420;2023-04-25T01:55:01;5.20;99.90
20700;DHT22;10511;51.232;9.420;2023-04-25T01:57:30;5.20;99.90
20700;DHT22;10511;51.232;9.420;2023-04-25T01:59:59;5.30;99.90
20700;DHT22;10511;51.232;9.420;2023-04-25T02:02:26;5.40;99.90
20700;DHT22;10511;51.232;9.420;2023-04-25T02:04:53;5.50;99.90
20700;DHT22;10511;51.232;9.420;2023-04-25T02:07:21;5.50;99.90
20700;DHT22;10511;51.232;9.420;2023-04-25T02:09:48;5.60;99.90
20700;DHT22;10511;51.232;9.420;2023-04-25T02:12:15;5.60;99.90
20700;DHT22;10511;51.232;9.420;2023-04-25T02:14:43;5.60;99.90
20700;DHT22;10511;51.232;9.420;2023-04-25T02:17:10;5.70;99.90
20700;DHT22;10511;51.232;9.420;2023-04-25T02:19:38;5.70;99.90
20700;DHT22;10511;51.232;9.420;2023-04-25T02:22:05;5.70;99.90
20700;DHT22;10511;51.232;9.420;2023-04-25T02:24:31;5.70;99.90
20700;DHT22;10511;51.232;9.420;2023-04-25T02:26:59;5.80;99.90
20700;DHT22;10511;51.232;9.420;2023-04-25T02:29:26;5.80;99.90
20700;DHT22;10511;51.232;9.420;2023-04-25T02:31:54;5.80;99.90
20700;DHT22;10511;51.232;9.420;2023-04-25T02:34:21;5.70;99.90
20700;DHT22;10511;51.232;9.420;2023-04-25T02:36:48;5.60;99.90
20700;DHT22;10511;51.232;9.420;2023-04-25T02:39:16;5.50;99.90
20700;DHT22;10511;51.232;9.420;2023-04-25T02:41:43;5.30;99.90
20700;DHT22;10511;51.232;9.420;2023-04-25T02:44:09;5.30;99.90
20700;DHT22;10511;51.232;9.420;2023-04-25T02:46:36;5.40;99.90
20700;DHT22;10511;51.232;9.420;2023-04-25T02:49:05;5.30;99.90
20700;DHT22;10511;51.232;9.420;2023-04-25T02:51:31;5.40;99.90
20700;DHT22;10511;51.232;9.420;2023-04-25T02:53:58;5.40;99.90
20700;DHT22;10511;51.232;9.420;2023-04-25T02:56:25;5.40;99.90
20700;DHT22;10511;51.232;9.420;2023-04-25T02:58:52;5.40;99.90
20700;DHT22;10511;51.232;9.420;2023-04-25T03:01:19;5.40;99.90
20700;DHT22;10511;51.232;9.420;2023-04-25T03:03:46;5.40;99.90
20700;DHT22;10511;51.232;9.420;2023-04-25T03:06:14;5.50;99.90
20700;DHT22;10511;51.232;9.420;2023-04-25T03:08:42;5.60;99.90
20700;DHT22;10511;51.232;9.420;2023-04-25T03:11:08;5.60;99.90
20700;DHT22;10511;51.232;9.420;2023-04-25T03:13:35;5.60;99.90
20700;DHT22;10511;51.232;9.420;2023-04-25T03:16:02;5.70;99.90
20700;DHT22;10511;51.232;9.420;2023-04-25T03:18:29;5.70;99.90
20700;DHT22;10511;51.232;9.420;2023-04-25T03:20:56;5.60;99.90
20700;DHT22;10511;51.232;9.420;2023-04-25T03:23:25;5.60;99.90
20700;DHT22;10511;51.232;9.420;2023-04-25T03:25:51;5.60;99.90
20700;DHT22;10511;51.232;9.420;2023-04-25T03:28:18;5.40;99.90
20700;DHT22;10511;51.232;9.420;2023-04-25T03:30:45;5.30;99.90
20700;DHT22;10511;51.232;9.420;2023-04-25T03:33:12;5.10;99.90
20700;DHT22;10511;51.232;9.420;2023-04-25T03:35:39;5.00;99.90
20700;DHT22;10511;51.232;9.420;2023-04-25T03:38:06;5.10;99.90
20700;DHT22;10511;51.232;9.420;2023-04-25T03:40:34;5.10;99.90
20700;DHT22;10511;51.232;9.420;2023-04-25T03:43:01;5.20;99.90
20700;DHT22;10511;51.232;9.420;2023-04-25T03:45:28;5.10;99.90
20700;DHT22;10511;51.232;9.420;2023-04-25T03:47:54;5.20;99.90
20700;DHT22;10511;51.232;9.420;2023-04-25T03:50:21;5.20;99.90
20700;DHT22;10511;51.232;9.420;2023-04-25T03:52:48;5.20;99.90
20700;DHT22;10511;51.232;9.420;2023-04-25T03:55:15;5.20;99.90
20700;DHT22;10511;51.232;9.420;2023-04-25T03:57:43;5.30;99.90
20700;DHT22;10511;51.232;9.420;2023-04-25T04:00:11;5.20;99.90
20700;DHT22;10511;51.232;9.420;2023-04-25T04:02:38;5.10;99.90
20700;DHT22;10511;51.232;9.420;2023-04-25T04:05:05;5.20;99.90
20700;DHT22;10511;51.232;9.420;2023-04-25T04:07:33;5.20;99.90
20700;DHT22;10511;51.232;9.420;2023-04-25T04:10:05;5.10;99.90
20700;DHT22;10511;51.232;9.420;2023-04-25T04:12:33;5.10;99.90
20700;DHT22;10511;51.232;9.420;2023-04-25T04:15:01;5.10;99.90
20700;DHT22;10511;51.232;9.420;2023-04-25T04:17:29;5.10;99.90
20700;DHT22;10511;51.232;9.420;2023-04-25T04:19:56;5.20;99.90
20700;DHT22;10511;51.232;9.420;2023-04-25T04:22:23;5.20;99.90
20700;DHT22;10511;51.232;9.420;2023-04-25T04:24:51;5.10;99.90
20700;DHT22;10511;51.232;9.420;2023-04-25T04:27:18;5.20;99.90
20700;DHT22;10511;51.232;9.420;2023-04-25T04:29:46;5.20;99.90
20700;DHT22;10511;51.232;9.420;2023-04-25T04:32:14;5.10;99.90
20700;DHT22;10511;51.232;9.420;2023-04-25T04:34:42;5.10;99.90
20700;DHT22;10511;51.232;9.420;2023-04-25T04:37:10;5.20;99.90
20700;DHT22;10511;51.232;9.420;2023-04-25T04:39:38;5.30;99.90
20700;DHT22;10511;51.232;9.420;2023-04-25T04:42:06;5.40;99.90
20700;DHT22;10511;51.232;9.420;2023-04-25T04:44:34;5.40;99.90
20700;DHT22;10511;51.232;9.420;2023-04-25T04:47:01;5.50;99.90
20700;DHT22;10511;51.232;9.420;2023-04-25T04:49:30;5.50;99.90
20700;DHT22;10511;51.232;9.420;2023-04-25T04:51:57;5.50;99.90
20700;DHT22;10511;51.232;9.420;2023-04-25T04:54:25;5.50;99.90
20700;DHT22;10511;51.232;9.420;2023-04-25T04:56:52;5.50;99.90
20700;DHT22;10511;51.232;9.420;2023-04-25T04:59:19;5.60;99.90
20700;DHT22;10511;51.232;9.420;2023-04-25T05:01:46;5.60;99.90
20700;DHT22;10511;51.232;9.420;2023-04-25T05:04:13;5.60;99.90
20700;DHT22;10511;51.232;9.420;2023-04-25T05:06:41;5.60;99.90
20700;DHT22;10511;51.232;9.420;2023-04-25T05:09:09;5.60;99.90
20700;DHT22;10511;51.232;9.420;2023-04-25T05:11:36;5.60;99.90
20700;DHT22;10511;51.232;9.420;2023-04-25T05:14:03;5.60;99.90
20700;DHT22;10511;51.232;9.420;2023-04-25T05:16:30;5.50;99.90
20700;DHT22;10511;51.232;9.420;2023-04-25T05:18:57;5.60;99.90
20700;DHT22;10511;51.232;9.420;2023-04-25T05:21:24;5.50;99.90
20700;DHT22;10511;51.232;9.420;2023-04-25T05:23:52;5.50;99.90
20700;DHT22;10511;51.232;9.420;2023-04-25T05:26:19;5.40;99.90
20700;DHT22;10511;51.232;9.420;2023-04-25T05:28:46;5.40;99.90
20700;DHT22;10511;51.232;9.420;2023-04-25T05:31:13;5.40;99.90
20700;DHT22;10511;51.232;9.420;2023-04-25T05:33:40;5.50;99.90
20700;DHT22;10511;51.232;9.420;2023-04-25T05:36:07;5.50;99.90
20700;DHT22;10511;51.232;9.420;2023-04-25T05:38:34;5.60;99.90
20700;DHT22;10511;51.232;9.420;2023-04-25T05:41:03;5.60;99.90
20700;DHT22;10511;51.232;9.420;2023-04-25T05:43:29;5.60;99.90
20700;DHT22;10511;51.232;9.420;2023-04-25T05:45:56;5.70;99.90
20700;DHT22;10511;51.232;9.420;2023-04-25T05:48:24;5.70;99.90
20700;DHT22;10511;51.232;9.420;2023-04-25T05:50:51;5.70;99.90
20700;DHT22;10511;51.232;9.420;2023-04-25T05:53:19;5.80;99.90
20700;DHT22;10511;51.232;9.420;2023-04-25T05:55:46;5.80;99.90
20700;DHT22;10511;51.232;9.420;2023-04-25T05:58:15;5.80;99.90
20700;DHT22;10511;51.232;9.420;2023-04-25T06:00:41;5.80;99.90
20700;DHT22;10511;51.232;9.420;2023-04-25T06:03:08;5.90;99.90
20700;DHT22;10511;51.232;9.420;2023-04-25T06:05:36;5.90;99.90
20700;DHT22;10511;51.232;9.420;2023-04-25T06:08:03;5.90;99.90
20700;DHT22;10511;51.232;9.420;2023-04-25T06:10:30;5.90;99.90
20700;DHT22;10511;51.232;9.420;2023-04-25T06:12:57;5.90;99.90
20700;DHT22;10511;51.232;9.420;2023-04-25T06:15:26;5.80;99.90
20700;DHT22;10511;51.232;9.420;2023-04-25T06:17:53;5.90;99.90
20700;DHT22;10511;51.232;9.420;2023-04-25T06:20:20;5.90;99.90
20700;DHT22;10511;51.232;9.420;2023-04-25T06:22:49;5.90;99.90
20700;DHT22;10511;51.232;9.420;2023-04-25T06:25:17;6.00;99.90
20700;DHT22;10511;51.232;9.420;2023-04-25T06:27:44;5.90;99.90
20700;DHT22;10511;51.232;9.420;2023-04-25T06:30:11;5.90;99.90
20700;DHT22;10511;51.232;9.420;2023-04-25T06:32:39;5.80;99.90
20700;DHT22;10511;51.232;9.420;2023-04-25T06:35:07;5.90;99.90
20700;DHT22;10511;51.232;9.420;2023-04-25T06:37:33;5.90;99.90
20700;DHT22;10511;51.232;9.420;2023-04-25T06:40:00;6.00;99.90
20700;DHT22;10511;51.232;9.420;2023-04-25T06:42:36;6.00;99.90
20700;DHT22;10511;51.232;9.420;2023-04-25T06:45:09;6.10;99.90
20700;DHT22;10511;51.232;9.420;2023-04-25T06:47:36;6.20;99.90
20700;DHT22;10511;51.232;9.420;2023-04-25T06:50:06;6.20;99.90
20700;DHT22;10511;51.232;9.420;2023-04-25T06:52:33;6.10;99.90
20700;DHT22;10511;51.232;9.420;2023-04-25T06:55:00;6.10;99.90
20700;DHT22;10511;51.232;9.420;2023-04-25T06:57:26;6.20;99.90
20700;DHT22;10511;51.232;9.420;2023-04-25T06:59:54;6.30;99.90
20700;DHT22;10511;51.232;9.420;2023-04-25T07:02:21;6.30;99.90
20700;DHT22;10511;51.232;9.420;2023-04-25T07:04:48;6.20;99.90
20700;DHT22;10511;51.232;9.420;2023-04-25T07:07:16;6.30;99.90
20700;DHT22;10511;51.232;9.420;2023-04-25T07:09:43;6.30;99.90
20700;DHT22;10511;51.232;9.420;2023-04-25T07:12:10;6.40;99.90
20700;DHT22;10511;51.232;9.420;2023-04-25T07:14:37;6.40;99.90
20700;DHT22;10511;51.232;9.420;2023-04-25T07:17:04;6.50;99.90
20700;DHT22;10511;51.232;9.420;2023-04-25T07:19:32;6.50;99.90
20700;DHT22;10511;51.232;9.420;2023-04-25T07:21:59;6.50;99.90
20700;DHT22;10511;51.232;9.420;2023-04-25T07:24:27;6.60;99.90
20700;DHT22;10511;51.232;9.420;2023-04-25T07:26:54;6.70;99.90
20700;DHT22;10511;51.232;9.420;2023-04-25T07:29:20;6.70;99.90
20700;DHT22;10511;51.232;9.420;2023-04-25T07:31:47;6.70;99.90
20700;DHT22;10511;51.232;9.420;2023-04-25T07:34:14;6.70;99.90
20700;DHT22;10511;51.232;9.420;2023-04-25T07:36:41;6.80;99.90
20700;DHT22;10511;51.232;9.420;2023-04-25T07:39:11;6.90;99.90
20700;DHT22;10511;51.232;9.420;2023-04-25T07:41:42;6.90;99.90
20700;DHT22;10511;51.232;9.420;2023-04-25T07:44:15;7.10;99.90
20700;DHT22;10511;51.232;9.420;2023-04-25T07:46:42;7.00;99.90
20700;DHT22;10511;51.232;9.420;2023-04-25T07:49:12;7.00;99.90
20700;DHT22;10511;51.232;9.420;2023-04-25T07:51:39;7.00;99.90
20700;DHT22;10511;51.232;9.420;2023-04-25T07:54:06;7.00;99.90
20700;DHT22;10511;51.232;9.420;2023-04-25T07:56:33;7.10;99.90
20700;DHT22;10511;51.232;9.420;2023-04-25T07:59:02;7.10;99.90
20700;DHT22;10511;51.232;9.420;2023-04-25T08:01:29;7.00;99.90
20700;DHT22;10511;51.232;9.420;2023-04-25T08:03:56;7.10;99.90
20700;DHT22;10511;51.232;9.420;2023-04-25T08:06:22;7.20;99.90
20700;DHT22;10511;51.232;9.420;2023-04-25T08:08:49;7.40;99.90
20700;DHT22;10511;51.232;9.420;2023-04-25T08:11:16;7.50;99.90
20700;DHT22;10511;51.232;9.420;2023-04-25T08:13:43;7.50;99.90
20700;DHT22;10511;51.232;9.420;2023-04-25T08:16:11;7.40;99.90
20700;DHT22;10511;51.232;9.420;2023-04-25T08:18:38;7.40;99.90
20700;DHT22;10511;51.232;9.420;2023-04-25T08:21:05;7.40;99.90
20700;DHT22;10511;51.232;9.420;2023-04-25T08:23:34;7.30;99.90
20700;DHT22;10511;51.232;9.420;2023-04-25T08:26:01;7.20;99.90
20700;DHT22;10511;51.232;9.420;2023-04-25T08:28:28;7.20;99.90
20700;DHT22;10511;51.232;9.420;2023-04-25T08:30:55;7.20;99.90
20700;DHT22;10511;51.232;9.420;2023-04-25T08:33:24;7.30;99.90
20700;DHT22;10511;51.232;9.420;2023-04-25T08:35:51;7.30;99.90
20700;DHT22;10511;51.232;9.420;2023-04-25T08:38:18;7.20;99.90
20700;DHT22;10511;51.232;9.420;2023-04-25T08:40:49;6.80;99.90
20700;DHT22;10511;51.232;9.420;2023-04-25T08:43:18;6.50;99.90
20700;DHT22;10511;51.232;9.420;2023-04-25T08:45:46;6.40;99.90
20700;DHT22;10511;51.232;9.420;2023-04-25T08:48:14;6.20;99.90
20700;DHT22;10511;51.232;9.420;2023-04-25T08:50:45;6.20;99.90
20700;DHT22;10511;51.232;9.420;2023-04-25T08:53:16;6.20;99.90
20700;DHT22;10511;51.232;9.420;2023-04-25T08:55:46;6.30;99.90
20700;DHT22;10511;51.232;9.420;2023-04-25T08:58:13;6.40;99.90
20700;DHT22;10511;51.232;9.420;2023-04-25T09:00:40;6.50;99.90
20700;DHT22;10511;51.232;9.420;2023-04-25T09:03:07;6.80;99.90
20700;DHT22;10511;51.232;9.420;2023-04-25T09:05:35;6.90;99.90
20700;DHT22;10511;51.232;9.420;2023-04-25T09:08:03;7.00;99.90
20700;DHT22;10511;51.232;9.420;2023-04-25T09:10:30;7.10;99.90
20700;DHT22;10511;51.232;9.420;2023-04-25T09:13:05;7.30;99.90
20700;DHT22;10511;51.232;9.420;2023-04-25T09:15:32;7.50;99.90
20700;DHT22;10511;51.232;9.420;2023-04-25T09:17:59;7.50;99.90
20700;DHT22;10511;51.232;9.420;2023-04-25T09:20:26;7.50;99.90
20700;DHT22;10511;51.232;9.420;2023-04-25T09:23:05;7.50;99.90
20700;DHT22;10511;51.232;9.420;2023-04-25T09:25:36;7.50;99.90
20700;DHT22;10511;51.232;9.420;2023-04-25T09:28:05;7.50;99.90
20700;DHT22;10511;51.232;9.420;2023-04-25T09:30:33;7.50;99.90
20700;DHT22;10511;51.232;9.420;2023-04-25T09:33:07;7.60;99.90
20700;DHT22;10511;51.232;9.420;2023-04-25T09:35:38;7.60;99.90
20700;DHT22;10511;51.232;9.420;2023-04-25T09:38:11;7.60;99.90
20700;DHT22;10511;51.232;9.420;2023-04-25T09:40:42;7.70;99.90
20700;DHT22;10511;51.232;9.420;2023-04-25T09:43:10;7.70;99.90
20700;DHT22;10511;51.232;9.420;2023-04-25T09:45:44;7.80;99.90
20700;DHT22;10511;51.232;9.420;2023-04-25T09:48:17;8.10;99.90
20700;DHT22;10511;51.232;9.420;2023-04-25T09:50:44;8.50;99.90
20700;DHT22;10511;51.232;9.420;2023-04-25T09:53:15;8.50;99.90
20700;DHT22;10511;51.232;9.420;2023-04-25T09:55:43;8.40;99.90
20700;DHT22;10511;51.232;9.420;2023-04-25T09:58:11;8.20;99.90
20700;DHT22;10511;51.232;9.420;2023-04-25T10:00:40;8.00;99.90
20700;DHT22;10511;51.232;9.420;2023-04-25T10:03:08;7.90;99.90
20700;DHT22;10511;51.232;9.420;2023-04-25T10:05:35;7.80;99.90
20700;DHT22;10511;51.232;9.420;2023-04-25T10:08:03;7.70;99.90
20700;DHT22;10511;51.232;9.420;2023-04-25T10:10:33;7.60;99.90
20700;DHT22;10511;51.232;9.420;2023-04-25T10:13:05;7.60;99.90
20700;DHT22;10511;51.232;9.420;2023-04-25T10:15:34;7.60;99.90
20700;DHT22;10511;51.232;9.420;2023-04-25T10:18:02;7.70;99.90
20700;DHT22;10511;51.232;9.420;2023-04-25T10:20:29;7.80;99.90
20700;DHT22;10511;51.232;9.420;2023-04-25T10:23:01;7.80;99.90
20700;DHT22;10511;51.232;9.420;2023-04-25T10:25:30;8.00;99.90
20700;DHT22;10511;51.232;9.420;2023-04-25T10:27:59;8.40;99.90
20700;DHT22;10511;51.232;9.420;2023-04-25T10:30:27;8.60;99.90
20700;DHT22;10511;51.232;9.420;2023-04-25T10:32:55;8.60;99.90
20700;DHT22;10511;51.232;9.420;2023-04-25T10:35:26;8.30;99.90
20700;DHT22;10511;51.232;9.420;2023-04-25T10:38:14;8.10;99.90
20700;DHT22;10511;51.232;9.420;2023-04-25T10:40:41;8.00;99.90
20700;DHT22;10511;51.232;9.420;2023-04-25T10:46:16;7.90;99.90
20700;DHT22;10511;51.232;9.420;2023-04-25T10:48:48;8.00;99.90
20700;DHT22;10511;51.232;9.420;2023-04-25T10:51:22;8.10;99.90
20700;DHT22;10511;51.232;9.420;2023-04-25T10:54:00;8.20;99.90
20700;DHT22;10511;51.232;9.420;2023-04-25T10:56:28;8.00;99.90
20700;DHT22;10511;51.232;9.420;2023-04-25T10:59:07;8.00;99.90
20700;DHT22;10511;51.232;9.420;2023-04-25T11:01:38;8.10;99.90
20700;DHT22;10511;51.232;9.420;2023-04-25T11:04:06;8.10;99.90
20700;DHT22;10511;51.232;9.420;2023-04-25T11:06:55;8.10;99.90
20700;DHT22;10511;51.232;9.420;2023-04-25T11:09:24;8.10;99.90
20700;DHT22;10511;51.232;9.420;2023-04-25T11:11:54;8.10;99.90
20700;DHT22;10511;51.232;9.420;2023-04-25T11:14:21;8.20;99.90
20700;DHT22;10511;51.232;9.420;2023-04-25T11:16:54;8.20;99.90
20700;DHT22;10511;51.232;9.420;2023-04-25T11:19:21;8.20;99.90
20700;DHT22;10511;51.232;9.420;2023-04-25T11:21:48;8.30;99.90
20700;DHT22;10511;51.232;9.420;2023-04-25T11:24:16;8.30;99.90
20700;DHT22;10511;51.232;9.420;2023-04-25T11:26:43;8.30;99.90
20700;DHT22;10511;51.232;9.420;2023-04-25T11:29:13;8.20;99.90
20700;DHT22;10511;51.232;9.420;2023-04-25T11:31:43;8.20;99.90
20700;DHT22;10511;51.232;9.420;2023-04-25T11:34:16;8.30;99.90
20700;DHT22;10511;51.232;9.420;2023-04-25T11:36:43;8.40;99.90
20700;DHT22;10511;51.232;9.420;2023-04-25T11:39:11;8.90;99.90
20700;DHT22;10511;51.232;9.420;2023-04-25T11:41:38;9.00;99.90
20700;DHT22;10511;51.232;9.420;2023-04-25T11:44:05;8.80;99.90
20700;DHT22;10511;51.232;9.420;2023-04-25T11:46:33;8.70;99.90
20700;DHT22;10511;51.232;9.420;2023-04-25T11:49:01;8.40;99.90
20700;DHT22;10511;51.232;9.420;2023-04-25T11:51:29;8.50;99.90
20700;DHT22;10511;51.232;9.420;2023-04-25T11:53:57;8.30;99.90
20700;DHT22;10511;51.232;9.420;2023-04-25T11:56:24;8.20;99.90
20700;DHT22;10511;51.232;9.420;2023-04-25T11:58:55;8.10;99.90
20700;DHT22;10511;51.232;9.420;2023-04-25T12:01:26;8.00;99.90
20700;DHT22;10511;51.232;9.420;2023-04-25T12:03:53;8.00;99.90
20700;DHT22;10511;51.232;9.420;2023-04-25T12:06:20;8.00;99.90
20700;DHT22;10511;51.232;9.420;2023-04-25T12:09:01;8.10;99.90
20700;DHT22;10511;51.232;9.420;2023-04-25T12:11:29;8.00;99.90
20700;DHT22;10511;51.232;9.420;2023-04-25T12:14:01;8.00;99.90
20700;DHT22;10511;51.232;9.420;2023-04-25T12:16:28;8.00;99.90
20700;DHT22;10511;51.232;9.420;2023-04-25T12:18:56;7.90;99.90
20700;DHT22;10511;51.232;9.420;2023-04-25T12:21:23;7.90;99.90
20700;DHT22;10511;51.232;9.420;2023-04-25T12:23:54;7.90;99.90
20700;DHT22;10511;51.232;9.420;2023-04-25T12:26:23;8.00;99.90
20700;DHT22;10511;51.232;9.420;2023-04-25T12:28:50;8.10;99.90
20700;DHT22;10511;51.232;9.420;2023-04-25T12:31:17;8.20;99.90
20700;DHT22;10511;51.232;9.420;2023-04-25T12:33:44;8.40;99.90
20700;DHT22;10511;51.232;9.420;2023-04-25T12:36:13;8.70;99.90
20700;DHT22;10511;51.232;9.420;2023-04-25T12:38:42;9.10;99.90
20700;DHT22;10511;51.232;9.420;2023-04-25T12:41:09;9.10;99.90
20700;DHT22;10511;51.232;9.420;2023-04-25T12:43:37;9.00;99.90
20700;DHT22;10511;51.232;9.420;2023-04-25T12:46:05;9.00;99.90
20700;DHT22;10511;51.232;9.420;2023-04-25T12:48:31;8.90;99.90
20700;DHT22;10511;51.232;9.420;2023-04-25T12:50:58;8.90;99.90
20700;DHT22;10511;51.232;9.420;2023-04-25T12:53:25;8.80;99.90
20700;DHT22;10511;51.232;9.420;2023-04-25T12:55:52;8.60;99.90
20700;DHT22;10511;51.232;9.420;2023-04-25T12:58:19;8.50;99.90
20700;DHT22;10511;51.232;9.420;2023-04-25T13:00:47;8.40;99.90
20700;DHT22;10511;51.232;9.420;2023-04-25T13:03:14;8.30;99.90
20700;DHT22;10511;51.232;9.420;2023-04-25T13:05:42;8.30;99.90
20700;DHT22;10511;51.232;9.420;2023-04-25T13:08:09;8.30;99.90
20700;DHT22;10511;51.232;9.420;2023-04-25T13:10:36;8.20;99.90
20700;DHT22;10511;51.232;9.420;2023-04-25T13:13:05;8.10;99.90
20700;DHT22;10511;51.232;9.420;2023-04-25T13:15:33;8.10;99.90
20700;DHT22;10511;51.232;9.420;2023-04-25T13:18:02;8.20;99.90
20700;DHT22;10511;51.232;9.420;2023-04-25T13:20:29;8.20;99.90
20700;DHT22;10511;51.232;9.420;2023-04-25T13:22:56;8.20;99.90
20700;DHT22;10511;51.232;9.420;2023-04-25T13:25:23;8.20;99.90
20700;DHT22;10511;51.232;9.420;2023-04-25T13:27:50;8.40;99.90
20700;DHT22;10511;51.232;9.420;2023-04-25T13:30:17;8.40;99.90
20700;DHT22;10511;51.232;9.420;2023-04-25T13:32:44;8.50;99.90
20700;DHT22;10511;51.232;9.420;2023-04-25T13:35:13;8.50;99.90
20700;DHT22;10511;51.232;9.420;2023-04-25T13:37:40;8.60;99.90
20700;DHT22;10511;51.232;9.420;2023-04-25T13:40:09;8.70;99.90
20700;DHT22;10511;51.232;9.420;2023-04-25T13:42:37;9.10;99.90
20700;DHT22;10511;51.232;9.420;2023-04-25T13:45:04;9.50;99.90
20700;DHT22;10511;51.232;9.420;2023-04-25T13:47:31;9.80;99.90
20700;DHT22;10511;51.232;9.420;2023-04-25T13:49:59;9.90;99.90
20700;DHT22;10511;51.232;9.420;2023-04-25T13:52:29;9.90;99.90
20700;DHT22;10511;51.232;9.420;2023-04-25T13:54:56;10.00;99.90
20700;DHT22;10511;51.232;9.420;2023-04-25T13:57:23;9.70;99.90
20700;DHT22;10511;51.232;9.420;2023-04-25T13:59:50;9.60;99.90
20700;DHT22;10511;51.232;9.420;2023-04-25T14:02:17;9.50;99.90
20700;DHT22;10511;51.232;9.420;2023-04-25T14:04:44;9.30;99.90
20700;DHT22;10511;51.232;9.420;2023-04-25T14:07:11;9.10;99.90
20700;DHT22;10511;51.232;9.420;2023-04-25T14:09:39;8.90;99.90
20700;DHT22;10511;51.232;9.420;2023-04-25T14:12:06;8.80;99.90
20700;DHT22;10511;51.232;9.420;2023-04-25T14:14:33;8.90;99.90
20700;DHT22;10511;51.232;9.420;2023-04-25T14:17:00;8.90;99.90
20700;DHT22;10511;51.232;9.420;2023-04-25T14:19:27;8.80;99.90
20700;DHT22;10511;51.232;9.420;2023-04-25T14:21:54;8.70;99.90
20700;DHT22;10511;51.232;9.420;2023-04-25T14:24:21;8.70;99.90
20700;DHT22;10511;51.232;9.420;2023-04-25T14:26:49;8.70;99.90
20700;DHT22;10511;51.232;9.420;2023-04-25T14:29:16;8.60;99.90
20700;DHT22;10511;51.232;9.420;2023-04-25T14:31:43;8.70;99.90
20700;DHT22;10511;51.232;9.420;2023-04-25T14:34:10;8.70;99.90
20700;DHT22;10511;51.232;9.420;2023-04-25T14:36:37;8.70;99.90
20700;DHT22;10511;51.232;9.420;2023-04-25T14:39:04;8.70;99.90
20700;DHT22;10511;51.232;9.420;2023-04-25T14:41:31;8.70;99.90
20700;DHT22;10511;51.232;9.420;2023-04-25T14:44:00;8.70;99.90
20700;DHT22;10511;51.232;9.420;2023-04-25T14:46:26;8.70;99.90
20700;DHT22;10511;51.232;9.420;2023-04-25T14:48:54;8.70;99.90
20700;DHT22;10511;51.232;9.420;2023-04-25T14:51:21;8.70;99.90
20700;DHT22;10511;51.232;9.420;2023-04-25T14:53:48;8.60;99.90
20700;DHT22;10511;51.232;9.420;2023-04-25T14:56:15;8.60;99.90
20700;DHT22;10511;51.232;9.420;2023-04-25T14:58:42;8.40;99.90
20700;DHT22;10511;51.232;9.420;2023-04-25T15:01:10;8.40;99.90
20700;DHT22;10511;51.232;9.420;2023-04-25T15:03:38;8.40;99.90
20700;DHT22;10511;51.232;9.420;2023-04-25T15:06:05;8.40;99.90
20700;DHT22;10511;51.232;9.420;2023-04-25T15:08:33;8.40;99.90
20700;DHT22;10511;51.232;9.420;2023-04-25T15:11:00;8.40;99.90
20700;DHT22;10511;51.232;9.420;2023-04-25T15:13:27;8.30;99.90
20700;DHT22;10511;51.232;9.420;2023-04-25T15:15:54;8.30;99.90
20700;DHT22;10511;51.232;9.420;2023-04-25T15:18:23;8.30;99.90
20700;DHT22;10511;51.232;9.420;2023-04-25T15:20:51;8.30;99.90
20700;DHT22;10511;51.232;9.420;2023-04-25T15:23:18;8.30;99.90
20700;DHT22;10511;51.232;9.420;2023-04-25T15:25:45;8.40;99.90
20700;DHT22;10511;51.232;9.420;2023-04-25T15:28:12;8.50;99.90
20700;DHT22;10511;51.232;9.420;2023-04-25T15:30:41;8.60;99.90
20700;DHT22;10511;51.232;9.420;2023-04-25T15:33:08;8.60;99.90
20700;DHT22;10511;51.232;9.420;2023-04-25T15:35:36;8.50;99.90
20700;DHT22;10511;51.232;9.420;2023-04-25T15:38:03;8.50;99.90
20700;DHT22;10511;51.232;9.420;2023-04-25T15:40:30;8.40;99.90
20700;DHT22;10511;51.232;9.420;2023-04-25T15:42:58;8.30;99.90
20700;DHT22;10511;51.232;9.420;2023-04-25T15:45:29;8.20;99.90
20700;DHT22;10511;51.232;9.420;2023-04-25T15:47:57;8.10;99.90
20700;DHT22;10511;51.232;9.420;2023-04-25T15:50:24;8.10;99.90
20700;DHT22;10511;51.232;9.420;2023-04-25T15:52:53;8.10;99.90